Portada
METAR-TAF:

METAR-TAF

Aeroports :

Aeroport d'Hèlsinki-Vantaa

Hèlsinki, Finlàndia

latitud: 60-19N, longitud: 024-58E, altitud: 51 m

Observació

L'informe es va fer fa 32 minuts, a les 00:50 UTC
Vent 3 kt del Oest/Nord-Oest
Temperatura -6°C
Humitat 86%
Pressió 1018 hPa
Visibilitat 10 km o més
sense núvols per sota de 1500 mi sense presència de cumulonimbus.

METAR: EFHK 300050Z 30003KT CAVOK M06/M08 Q1018 NOSIG

Hora: 04:22 (01:22 UTC)

Pronòstic

L'informe es va fer fa 1 hora i 56 minuts, a les 23:26 UTC
Pronòstic vàlid del 30 a les 00 UTC al 30 a les 24 UTC
Vent 5 kt del Oest/Nord-Oest
Visibilitat 10 km o més
sense núvols per sota de 1500 mi sense presència de cumulonimbus.
Evolucionant progressivament
l' 30 a les 07 UTC al 30 a les 09 UTC
Vent 10 kt del Nord/Nord-Est
Evolucionant progressivament
l' 30 a les 17 UTC al 30 a les 19 UTC
Vent 5 kt del Nord/Nord-Oest

TAF: EFHK 292326Z 3000/3024 30005KT CAVOK BECMG 3007/3009 03010KT BECMG 3017/3019 33005KT

Observacions i pronòstics meteorològics de més de 4000 aeroports (METAR i TAF).

Les estacions disponibles són els punts grocs i vermells al mapa.

Posi el ratolí al punt desitjat per veure el nom de l'estació.

Feu clic per veure les observacions i els pronòstics meteorològics.

Per canviar el mapa: feu clic els botons verds amb una creu de color negre per apropar; al botó verd amb un guió per allunyar la imatge; o en les fletxes verdes per a mapes adjacents.


METAR-TAF: